Terminal Aerodrome Forecast
Issued by NWS Tampa Bay Area, FL

Home | Current Version | Previous Version | Text Only | Print | Product List | Glossary On
Versions: 1 2 3 4 5 6 7 8 9 10 11 12 13
606
FTUS42 KTBW 290521
TAFFMY
TAF
KFMY 290521Z 2906/3006 29005KT P6SM FEW250
     FM291400 36005KT P6SM SCT025 SCT250
     FM291700 27007KT P6SM SCT035 SCT250
     FM291900 27010KT P6SM SCT050 SCT250=

USA.gov is the U.S. government's official web portal to all federal, state and local government web resources and services.